sensor_id;sensor_type;location;lat;lon;timestamp;P1;durP1;ratioP1;P2;durP2;ratioP2
19049;SDS011;9657;45.940;12.840;2023-03-23T00:01:24;16.17;;;12.57;;
19049;SDS011;9657;45.940;12.840;2023-03-23T00:03:55;13.20;;;11.57;;
19049;SDS011;9657;45.940;12.840;2023-03-23T00:06:23;18.83;;;13.23;;
19049;SDS011;9657;45.940;12.840;2023-03-23T00:08:54;15.27;;;11.73;;
19049;SDS011;9657;45.940;12.840;2023-03-23T00:11:25;16.43;;;12.70;;
19049;SDS011;9657;45.940;12.840;2023-03-23T00:13:54;15.40;;;13.27;;
19049;SDS011;9657;45.940;12.840;2023-03-23T00:16:26;14.40;;;11.77;;
19049;SDS011;9657;45.940;12.840;2023-03-23T00:18:55;15.50;;;13.07;;
19049;SDS011;9657;45.940;12.840;2023-03-23T00:21:24;13.50;;;12.07;;
19049;SDS011;9657;45.940;12.840;2023-03-23T00:24:00;14.77;;;12.90;;
19049;SDS011;9657;45.940;12.840;2023-03-23T00:26:29;15.47;;;13.67;;
19049;SDS011;9657;45.940;12.840;2023-03-23T00:28:58;17.60;;;13.33;;
19049;SDS011;9657;45.940;12.840;2023-03-23T00:31:27;14.30;;;12.80;;
19049;SDS011;9657;45.940;12.840;2023-03-23T00:33:58;17.43;;;12.23;;
19049;SDS011;9657;45.940;12.840;2023-03-23T00:36:27;15.53;;;13.23;;
19049;SDS011;9657;45.940;12.840;2023-03-23T00:38:54;15.20;;;13.00;;
19049;SDS011;9657;45.940;12.840;2023-03-23T00:41:26;13.93;;;12.50;;
19049;SDS011;9657;45.940;12.840;2023-03-23T00:43:54;16.00;;;13.50;;
19049;SDS011;9657;45.940;12.840;2023-03-23T00:46:22;15.77;;;12.67;;
19049;SDS011;9657;45.940;12.840;2023-03-23T00:48:49;13.53;;;12.13;;
19049;SDS011;9657;45.940;12.840;2023-03-23T00:51:17;15.33;;;13.17;;
19049;SDS011;9657;45.940;12.840;2023-03-23T00:53:44;16.75;;;12.98;;
19049;SDS011;9657;45.940;12.840;2023-03-23T00:56:12;14.60;;;13.10;;
19049;SDS011;9657;45.940;12.840;2023-03-23T00:58:41;14.77;;;12.73;;
19049;SDS011;9657;45.940;12.840;2023-03-23T01:01:08;15.00;;;13.50;;
19049;SDS011;9657;45.940;12.840;2023-03-23T01:03:35;15.13;;;13.07;;
19049;SDS011;9657;45.940;12.840;2023-03-23T01:06:06;17.17;;;13.70;;
19049;SDS011;9657;45.940;12.840;2023-03-23T01:08:37;14.33;;;12.93;;
19049;SDS011;9657;45.940;12.840;2023-03-23T01:11:10;17.03;;;13.67;;
19049;SDS011;9657;45.940;12.840;2023-03-23T01:13:39;15.13;;;13.47;;
19049;SDS011;9657;45.940;12.840;2023-03-23T01:16:08;16.17;;;13.00;;
19049;SDS011;9657;45.940;12.840;2023-03-23T01:18:36;14.20;;;12.70;;
19049;SDS011;9657;45.940;12.840;2023-03-23T01:21:05;17.70;;;13.90;;
19049;SDS011;9657;45.940;12.840;2023-03-23T01:23:33;15.67;;;13.30;;
19049;SDS011;9657;45.940;12.840;2023-03-23T01:26:04;15.83;;;13.57;;
19049;SDS011;9657;45.940;12.840;2023-03-23T01:28:32;15.23;;;13.40;;
19049;SDS011;9657;45.940;12.840;2023-03-23T01:31:01;15.67;;;14.07;;
19049;SDS011;9657;45.940;12.840;2023-03-23T01:33:29;16.40;;;14.20;;
19049;SDS011;9657;45.940;12.840;2023-03-23T01:35:57;15.37;;;13.47;;
19049;SDS011;9657;45.940;12.840;2023-03-23T01:38:25;17.07;;;13.83;;
19049;SDS011;9657;45.940;12.840;2023-03-23T01:40:52;15.73;;;14.13;;
19049;SDS011;9657;45.940;12.840;2023-03-23T01:43:19;17.90;;;14.23;;
19049;SDS011;9657;45.940;12.840;2023-03-23T01:45:46;16.97;;;14.20;;
19049;SDS011;9657;45.940;12.840;2023-03-23T01:48:15;15.00;;;13.27;;
19049;SDS011;9657;45.940;12.840;2023-03-23T01:50:48;17.77;;;14.60;;
19049;SDS011;9657;45.940;12.840;2023-03-23T01:53:19;15.27;;;13.50;;
19049;SDS011;9657;45.940;12.840;2023-03-23T01:55:48;16.97;;;15.00;;
19049;SDS011;9657;45.940;12.840;2023-03-23T01:58:18;17.53;;;14.57;;
19049;SDS011;9657;45.940;12.840;2023-03-23T02:03:27;16.87;;;13.50;;
19049;SDS011;9657;45.940;12.840;2023-03-23T02:05:56;16.73;;;13.77;;
19049;SDS011;9657;45.940;12.840;2023-03-23T02:08:24;17.53;;;14.17;;
19049;SDS011;9657;45.940;12.840;2023-03-23T02:10:54;19.23;;;15.63;;
19049;SDS011;9657;45.940;12.840;2023-03-23T02:13:21;17.13;;;14.90;;
19049;SDS011;9657;45.940;12.840;2023-03-23T02:15:50;17.20;;;15.20;;
19049;SDS011;9657;45.940;12.840;2023-03-23T02:18:30;16.73;;;15.03;;
19049;SDS011;9657;45.940;12.840;2023-03-23T02:24:03;18.40;;;14.93;;
19049;SDS011;9657;45.940;12.840;2023-03-23T02:26:57;16.33;;;14.00;;
19049;SDS011;9657;45.940;12.840;2023-03-23T02:29:42;16.07;;;14.27;;
19049;SDS011;9657;45.940;12.840;2023-03-23T02:35:36;16.03;;;13.90;;
19049;SDS011;9657;45.940;12.840;2023-03-23T02:38:06;19.33;;;14.83;;
19049;SDS011;9657;45.940;12.840;2023-03-23T02:40:40;17.03;;;14.43;;
19049;SDS011;9657;45.940;12.840;2023-03-23T02:43:09;15.93;;;14.20;;
19049;SDS011;9657;45.940;12.840;2023-03-23T02:45:40;15.50;;;13.87;;
19049;SDS011;9657;45.940;12.840;2023-03-23T02:48:10;15.83;;;14.23;;
19049;SDS011;9657;45.940;12.840;2023-03-23T02:50:42;16.80;;;15.07;;
19049;SDS011;9657;45.940;12.840;2023-03-23T02:53:13;15.53;;;13.83;;
19049;SDS011;9657;45.940;12.840;2023-03-23T02:55:45;18.50;;;15.10;;
19049;SDS011;9657;45.940;12.840;2023-03-23T02:58:13;16.13;;;14.40;;
19049;SDS011;9657;45.940;12.840;2023-03-23T03:00:41;19.53;;;16.13;;
19049;SDS011;9657;45.940;12.840;2023-03-23T03:03:10;16.87;;;15.17;;
19049;SDS011;9657;45.940;12.840;2023-03-23T03:05:42;16.63;;;14.10;;
19049;SDS011;9657;45.940;12.840;2023-03-23T03:08:21;17.73;;;15.73;;
19049;SDS011;9657;45.940;12.840;2023-03-23T03:10:53;18.30;;;14.60;;
19049;SDS011;9657;45.940;12.840;2023-03-23T03:13:26;17.23;;;14.40;;
19049;SDS011;9657;45.940;12.840;2023-03-23T03:15:59;16.93;;;14.70;;
19049;SDS011;9657;45.940;12.840;2023-03-23T03:18:31;15.63;;;13.93;;
19049;SDS011;9657;45.940;12.840;2023-03-23T03:21:06;15.97;;;14.27;;
19049;SDS011;9657;45.940;12.840;2023-03-23T03:23:38;16.83;;;14.63;;
19049;SDS011;9657;45.940;12.840;2023-03-23T03:26:07;15.83;;;14.17;;
19049;SDS011;9657;45.940;12.840;2023-03-23T03:28:42;16.43;;;14.57;;
19049;SDS011;9657;45.940;12.840;2023-03-23T03:31:13;16.13;;;14.47;;
19049;SDS011;9657;45.940;12.840;2023-03-23T03:33:43;16.47;;;14.17;;
19049;SDS011;9657;45.940;12.840;2023-03-23T03:36:15;16.10;;;14.40;;
19049;SDS011;9657;45.940;12.840;2023-03-23T03:38:46;19.10;;;14.97;;
19049;SDS011;9657;45.940;12.840;2023-03-23T03:41:15;17.07;;;15.00;;
19049;SDS011;9657;45.940;12.840;2023-03-23T03:43:43;17.10;;;14.23;;
19049;SDS011;9657;45.940;12.840;2023-03-23T03:46:11;15.80;;;14.23;;
19049;SDS011;9657;45.940;12.840;2023-03-23T03:48:38;17.87;;;14.97;;
19049;SDS011;9657;45.940;12.840;2023-03-23T03:51:05;16.07;;;14.37;;
19049;SDS011;9657;45.940;12.840;2023-03-23T03:53:35;16.50;;;14.67;;
19049;SDS011;9657;45.940;12.840;2023-03-23T03:56:02;16.13;;;14.43;;
19049;SDS011;9657;45.940;12.840;2023-03-23T03:58:30;15.93;;;14.23;;
19049;SDS011;9657;45.940;12.840;2023-03-23T04:00:58;16.50;;;14.80;;
19049;SDS011;9657;45.940;12.840;2023-03-23T04:03:25;15.30;;;13.60;;
19049;SDS011;9657;45.940;12.840;2023-03-23T04:05:53;16.33;;;14.63;;
19049;SDS011;9657;45.940;12.840;2023-03-23T04:08:21;17.90;;;14.53;;
19049;SDS011;9657;45.940;12.840;2023-03-23T04:10:50;16.07;;;14.13;;
19049;SDS011;9657;45.940;12.840;2023-03-23T04:13:18;15.73;;;14.13;;
19049;SDS011;9657;45.940;12.840;2023-03-23T04:15:46;15.93;;;14.27;;
19049;SDS011;9657;45.940;12.840;2023-03-23T04:18:13;15.27;;;13.67;;
19049;SDS011;9657;45.940;12.840;2023-03-23T04:20:42;17.00;;;14.73;;
19049;SDS011;9657;45.940;12.840;2023-03-23T04:23:12;20.47;;;15.90;;
19049;SDS011;9657;45.940;12.840;2023-03-23T04:25:39;16.23;;;13.70;;
19049;SDS011;9657;45.940;12.840;2023-03-23T04:28:09;15.90;;;14.20;;
19049;SDS011;9657;45.940;12.840;2023-03-23T04:30:36;15.87;;;14.03;;
19049;SDS011;9657;45.940;12.840;2023-03-23T04:33:03;15.67;;;14.07;;
19049;SDS011;9657;45.940;12.840;2023-03-23T04:35:31;15.73;;;14.10;;
19049;SDS011;9657;45.940;12.840;2023-03-23T04:37:59;17.70;;;14.80;;
19049;SDS011;9657;45.940;12.840;2023-03-23T04:40:26;18.07;;;15.17;;
19049;SDS011;9657;45.940;12.840;2023-03-23T04:42:53;15.17;;;13.63;;
19049;SDS011;9657;45.940;12.840;2023-03-23T04:45:23;16.17;;;14.53;;
19049;SDS011;9657;45.940;12.840;2023-03-23T04:47:51;15.93;;;14.27;;
19049;SDS011;9657;45.940;12.840;2023-03-23T04:50:23;16.60;;;14.90;;
19049;SDS011;9657;45.940;12.840;2023-03-23T04:52:51;16.53;;;14.70;;
19049;SDS011;9657;45.940;12.840;2023-03-23T04:55:22;17.43;;;14.27;;
19049;SDS011;9657;45.940;12.840;2023-03-23T04:57:50;16.07;;;14.03;;
19049;SDS011;9657;45.940;12.840;2023-03-23T05:00:18;17.43;;;14.33;;
19049;SDS011;9657;45.940;12.840;2023-03-23T05:02:47;17.27;;;14.90;;
19049;SDS011;9657;45.940;12.840;2023-03-23T05:05:16;15.60;;;13.77;;
19049;SDS011;9657;45.940;12.840;2023-03-23T05:07:45;14.90;;;13.30;;
19049;SDS011;9657;45.940;12.840;2023-03-23T05:10:12;15.93;;;14.27;;
19049;SDS011;9657;45.940;12.840;2023-03-23T05:12:40;15.50;;;13.97;;
19049;SDS011;9657;45.940;12.840;2023-03-23T05:15:08;17.53;;;14.90;;
19049;SDS011;9657;45.940;12.840;2023-03-23T05:17:37;15.83;;;14.13;;
19049;SDS011;9657;45.940;12.840;2023-03-23T05:20:07;14.90;;;13.30;;
19049;SDS011;9657;45.940;12.840;2023-03-23T05:22:36;18.77;;;15.23;;
19049;SDS011;9657;45.940;12.840;2023-03-23T05:25:04;17.20;;;14.93;;
19049;SDS011;9657;45.940;12.840;2023-03-23T05:27:34;15.57;;;13.87;;
19049;SDS011;9657;45.940;12.840;2023-03-23T05:30:01;16.53;;;14.83;;
19049;SDS011;9657;45.940;12.840;2023-03-23T05:32:29;16.87;;;14.40;;
19049;SDS011;9657;45.940;12.840;2023-03-23T05:34:56;14.97;;;13.47;;
19049;SDS011;9657;45.940;12.840;2023-03-23T05:37:25;16.30;;;13.67;;
19049;SDS011;9657;45.940;12.840;2023-03-23T05:39:57;16.27;;;14.57;;
19049;SDS011;9657;45.940;12.840;2023-03-23T05:42:30;18.23;;;14.50;;
19049;SDS011;9657;45.940;12.840;2023-03-23T05:44:57;17.23;;;14.07;;
19049;SDS011;9657;45.940;12.840;2023-03-23T05:47:25;17.03;;;13.53;;
19049;SDS011;9657;45.940;12.840;2023-03-23T05:49:52;16.03;;;14.33;;
19049;SDS011;9657;45.940;12.840;2023-03-23T05:52:19;15.57;;;13.97;;
19049;SDS011;9657;45.940;12.840;2023-03-23T05:54:50;16.20;;;14.60;;
19049;SDS011;9657;45.940;12.840;2023-03-23T05:57:17;15.63;;;14.03;;
19049;SDS011;9657;45.940;12.840;2023-03-23T05:59:46;15.80;;;14.07;;
19049;SDS011;9657;45.940;12.840;2023-03-23T06:02:14;16.80;;;14.23;;
19049;SDS011;9657;45.940;12.840;2023-03-23T06:04:41;15.60;;;13.90;;
19049;SDS011;9657;45.940;12.840;2023-03-23T06:07:10;16.20;;;14.30;;
19049;SDS011;9657;45.940;12.840;2023-03-23T06:09:39;16.87;;;14.43;;
19049;SDS011;9657;45.940;12.840;2023-03-23T06:12:08;16.33;;;14.43;;
19049;SDS011;9657;45.940;12.840;2023-03-23T06:14:36;17.57;;;14.43;;
19049;SDS011;9657;45.940;12.840;2023-03-23T06:17:03;15.20;;;13.63;;
19049;SDS011;9657;45.940;12.840;2023-03-23T06:19:31;14.83;;;13.23;;
19049;SDS011;9657;45.940;12.840;2023-03-23T06:21:59;15.27;;;13.67;;
19049;SDS011;9657;45.940;12.840;2023-03-23T06:24:27;15.93;;;14.13;;
19049;SDS011;9657;45.940;12.840;2023-03-23T06:26:54;16.50;;;14.67;;
19049;SDS011;9657;45.940;12.840;2023-03-23T06:29:22;16.17;;;14.47;;
19049;SDS011;9657;45.940;12.840;2023-03-23T06:31:51;15.97;;;14.30;;
19049;SDS011;9657;45.940;12.840;2023-03-23T06:34:20;15.57;;;13.80;;
19049;SDS011;9657;45.940;12.840;2023-03-23T06:36:48;15.37;;;13.43;;
19049;SDS011;9657;45.940;12.840;2023-03-23T06:39:15;17.00;;;14.17;;
19049;SDS011;9657;45.940;12.840;2023-03-23T06:41:42;15.73;;;14.23;;
19049;SDS011;9657;45.940;12.840;2023-03-23T06:44:09;18.13;;;14.87;;
19049;SDS011;9657;45.940;12.840;2023-03-23T06:46:39;15.47;;;13.87;;
19049;SDS011;9657;45.940;12.840;2023-03-23T06:49:07;16.20;;;14.50;;
19049;SDS011;9657;45.940;12.840;2023-03-23T06:51:34;17.77;;;13.67;;
19049;SDS011;9657;45.940;12.840;2023-03-23T06:54:02;14.77;;;13.27;;
19049;SDS011;9657;45.940;12.840;2023-03-23T06:56:30;16.27;;;14.20;;
19049;SDS011;9657;45.940;12.840;2023-03-23T06:58:57;16.23;;;13.50;;
19049;SDS011;9657;45.940;12.840;2023-03-23T07:01:24;15.60;;;13.70;;
19049;SDS011;9657;45.940;12.840;2023-03-23T07:03:54;16.60;;;14.17;;
19049;SDS011;9657;45.940;12.840;2023-03-23T07:06:21;14.87;;;13.37;;
19049;SDS011;9657;45.940;12.840;2023-03-23T07:08:50;17.10;;;14.33;;
19049;SDS011;9657;45.940;12.840;2023-03-23T07:11:17;15.70;;;13.50;;
19049;SDS011;9657;45.940;12.840;2023-03-23T07:13:44;16.37;;;14.03;;
19049;SDS011;9657;45.940;12.840;2023-03-23T07:16:11;15.60;;;13.00;;
19049;SDS011;9657;45.940;12.840;2023-03-23T07:18:38;14.60;;;13.10;;
19049;SDS011;9657;45.940;12.840;2023-03-23T07:21:07;15.53;;;13.73;;
19049;SDS011;9657;45.940;12.840;2023-03-23T07:23:34;17.00;;;14.33;;
19049;SDS011;9657;45.940;12.840;2023-03-23T07:26:01;14.50;;;12.83;;
19049;SDS011;9657;45.940;12.840;2023-03-23T07:28:29;18.20;;;14.50;;
19049;SDS011;9657;45.940;12.840;2023-03-23T07:30:56;16.07;;;13.17;;
19049;SDS011;9657;45.940;12.840;2023-03-23T07:33:23;16.23;;;13.80;;
19049;SDS011;9657;45.940;12.840;2023-03-23T07:35:52;14.80;;;13.13;;
19049;SDS011;9657;45.940;12.840;2023-03-23T07:38:20;16.80;;;13.47;;
19049;SDS011;9657;45.940;12.840;2023-03-23T07:40:47;15.40;;;13.33;;
19049;SDS011;9657;45.940;12.840;2023-03-23T07:43:14;16.13;;;13.50;;
19049;SDS011;9657;45.940;12.840;2023-03-23T07:45:41;15.60;;;13.33;;
19049;SDS011;9657;45.940;12.840;2023-03-23T07:48:08;13.53;;;12.10;;
19049;SDS011;9657;45.940;12.840;2023-03-23T07:50:35;14.17;;;12.73;;
19049;SDS011;9657;45.940;12.840;2023-03-23T07:53:02;15.97;;;13.10;;
19049;SDS011;9657;45.940;12.840;2023-03-23T07:55:31;15.27;;;13.17;;
19049;SDS011;9657;45.940;12.840;2023-03-23T07:57:58;16.40;;;13.27;;
19049;SDS011;9657;45.940;12.840;2023-03-23T08:00:25;14.27;;;11.90;;
19049;SDS011;9657;45.940;12.840;2023-03-23T08:02:54;16.50;;;13.60;;
19049;SDS011;9657;45.940;12.840;2023-03-23T08:05:24;14.87;;;12.60;;
19049;SDS011;9657;45.940;12.840;2023-03-23T08:07:53;14.07;;;12.57;;
19049;SDS011;9657;45.940;12.840;2023-03-23T08:10:21;14.60;;;13.10;;
19049;SDS011;9657;45.940;12.840;2023-03-23T08:12:52;14.57;;;12.43;;
19049;SDS011;9657;45.940;12.840;2023-03-23T08:15:20;14.97;;;12.40;;
19049;SDS011;9657;45.940;12.840;2023-03-23T08:17:48;13.83;;;12.20;;
19049;SDS011;9657;45.940;12.840;2023-03-23T08:20:16;16.17;;;13.00;;
19049;SDS011;9657;45.940;12.840;2023-03-23T08:22:45;15.13;;;12.90;;
19049;SDS011;9657;45.940;12.840;2023-03-23T08:25:19;14.20;;;12.27;;
19049;SDS011;9657;45.940;12.840;2023-03-23T08:27:46;14.23;;;12.13;;
19049;SDS011;9657;45.940;12.840;2023-03-23T08:30:15;13.80;;;12.40;;
19049;SDS011;9657;45.940;12.840;2023-03-23T08:32:44;17.13;;;12.33;;
19049;SDS011;9657;45.940;12.840;2023-03-23T08:35:12;12.90;;;11.63;;
19049;SDS011;9657;45.940;12.840;2023-03-23T08:37:40;14.30;;;11.93;;
19049;SDS011;9657;45.940;12.840;2023-03-23T08:40:08;19.60;;;12.40;;
19049;SDS011;9657;45.940;12.840;2023-03-23T08:42:36;13.20;;;11.77;;
19049;SDS011;9657;45.940;12.840;2023-03-23T08:45:05;13.63;;;12.23;;
19049;SDS011;9657;45.940;12.840;2023-03-23T08:47:35;14.07;;;12.30;;
19049;SDS011;9657;45.940;12.840;2023-03-23T08:50:03;12.20;;;10.90;;
19049;SDS011;9657;45.940;12.840;2023-03-23T08:52:31;13.33;;;11.20;;
19049;SDS011;9657;45.940;12.840;2023-03-23T08:54:58;12.70;;;11.40;;
19049;SDS011;9657;45.940;12.840;2023-03-23T08:57:26;12.50;;;10.93;;
19049;SDS011;9657;45.940;12.840;2023-03-23T08:59:54;12.37;;;11.07;;
19049;SDS011;9657;45.940;12.840;2023-03-23T09:02:25;12.80;;;10.73;;
19049;SDS011;9657;45.940;12.840;2023-03-23T09:04:53;11.67;;;10.33;;
19049;SDS011;9657;45.940;12.840;2023-03-23T09:07:20;12.43;;;9.90;;
19049;SDS011;9657;45.940;12.840;2023-03-23T09:09:48;12.23;;;10.87;;
19049;SDS011;9657;45.940;12.840;2023-03-23T09:12:16;11.90;;;10.50;;
19049;SDS011;9657;45.940;12.840;2023-03-23T09:14:43;11.93;;;9.97;;
19049;SDS011;9657;45.940;12.840;2023-03-23T09:17:11;11.17;;;10.07;;
19049;SDS011;9657;45.940;12.840;2023-03-23T09:19:38;12.50;;;10.00;;
19049;SDS011;9657;45.940;12.840;2023-03-23T09:22:07;12.13;;;9.83;;
19049;SDS011;9657;45.940;12.840;2023-03-23T09:24:34;11.33;;;10.07;;
19049;SDS011;9657;45.940;12.840;2023-03-23T09:27:02;11.40;;;10.30;;
19049;SDS011;9657;45.940;12.840;2023-03-23T09:29:29;11.07;;;9.97;;
19049;SDS011;9657;45.940;12.840;2023-03-23T09:31:56;12.17;;;10.97;;
19049;SDS011;9657;45.940;12.840;2023-03-23T09:34:23;14.53;;;11.93;;
19049;SDS011;9657;45.940;12.840;2023-03-23T09:36:50;12.80;;;11.20;;
19049;SDS011;9657;45.940;12.840;2023-03-23T09:39:19;14.50;;;10.63;;
19049;SDS011;9657;45.940;12.840;2023-03-23T09:41:50;13.97;;;11.60;;
19049;SDS011;9657;45.940;12.840;2023-03-23T09:44:34;14.47;;;10.87;;
19049;SDS011;9657;45.940;12.840;2023-03-23T09:47:10;13.63;;;11.37;;
19049;SDS011;9657;45.940;12.840;2023-03-23T09:49:47;15.80;;;11.90;;
19049;SDS011;9657;45.940;12.840;2023-03-23T09:52:18;13.67;;;10.83;;
19049;SDS011;9657;45.940;12.840;2023-03-23T09:54:47;14.23;;;11.50;;
19049;SDS011;9657;45.940;12.840;2023-03-23T09:57:16;15.73;;;11.50;;
19049;SDS011;9657;45.940;12.840;2023-03-23T09:59:51;16.33;;;11.50;;
19049;SDS011;9657;45.940;12.840;2023-03-23T10:02:24;16.80;;;11.33;;
19049;SDS011;9657;45.940;12.840;2023-03-23T10:04:55;13.17;;;10.30;;
19049;SDS011;9657;45.940;12.840;2023-03-23T10:07:29;12.27;;;10.50;;
19049;SDS011;9657;45.940;12.840;2023-03-23T10:10:00;13.47;;;11.03;;
19049;SDS011;9657;45.940;12.840;2023-03-23T10:12:29;12.43;;;10.80;;
19049;SDS011;9657;45.940;12.840;2023-03-23T10:15:13;12.37;;;11.03;;
19049;SDS011;9657;45.940;12.840;2023-03-23T10:17:45;15.93;;;11.77;;
19049;SDS011;9657;45.940;12.840;2023-03-23T10:20:21;12.50;;;11.23;;
19049;SDS011;9657;45.940;12.840;2023-03-23T10:22:57;12.93;;;10.93;;
19049;SDS011;9657;45.940;12.840;2023-03-23T10:25:31;11.83;;;9.67;;
19049;SDS011;9657;45.940;12.840;2023-03-23T10:28:03;13.20;;;10.43;;
19049;SDS011;9657;45.940;12.840;2023-03-23T10:30:34;13.23;;;10.73;;
19049;SDS011;9657;45.940;12.840;2023-03-23T10:33:08;13.20;;;11.73;;
19049;SDS011;9657;45.940;12.840;2023-03-23T10:35:42;13.47;;;11.27;;
19049;SDS011;9657;45.940;12.840;2023-03-23T10:38:14;13.10;;;11.23;;
19049;SDS011;9657;45.940;12.840;2023-03-23T10:40:48;13.93;;;11.20;;
19049;SDS011;9657;45.940;12.840;2023-03-23T10:43:18;14.27;;;11.47;;
19049;SDS011;9657;45.940;12.840;2023-03-23T10:45:48;14.03;;;11.50;;
19049;SDS011;9657;45.940;12.840;2023-03-23T10:48:23;14.53;;;11.40;;
19049;SDS011;9657;45.940;12.840;2023-03-23T10:50:56;13.43;;;11.23;;
19049;SDS011;9657;45.940;12.840;2023-03-23T10:53:28;17.97;;;12.23;;
19049;SDS011;9657;45.940;12.840;2023-03-23T10:56:00;12.87;;;11.47;;
19049;SDS011;9657;45.940;12.840;2023-03-23T10:58:28;17.73;;;11.53;;
19049;SDS011;9657;45.940;12.840;2023-03-23T11:00:57;14.87;;;12.43;;
19049;SDS011;9657;45.940;12.840;2023-03-23T11:03:34;16.57;;;11.83;;
19049;SDS011;9657;45.940;12.840;2023-03-23T11:06:06;16.37;;;13.03;;
19049;SDS011;9657;45.940;12.840;2023-03-23T11:08:36;16.60;;;12.57;;
19049;SDS011;9657;45.940;12.840;2023-03-23T11:11:16;15.10;;;12.93;;
19049;SDS011;9657;45.940;12.840;2023-03-23T11:13:45;15.17;;;13.03;;
19049;SDS011;9657;45.940;12.840;2023-03-23T11:16:21;14.53;;;12.57;;
19049;SDS011;9657;45.940;12.840;2023-03-23T11:18:50;15.73;;;12.80;;
19049;SDS011;9657;45.940;12.840;2023-03-23T11:21:19;14.47;;;12.97;;
19049;SDS011;9657;45.940;12.840;2023-03-23T11:23:48;14.20;;;12.47;;
19049;SDS011;9657;45.940;12.840;2023-03-23T11:26:21;17.07;;;12.20;;
19049;SDS011;9657;45.940;12.840;2023-03-23T11:28:52;15.70;;;12.60;;
19049;SDS011;9657;45.940;12.840;2023-03-23T11:31:22;16.40;;;12.13;;
19049;SDS011;9657;45.940;12.840;2023-03-23T11:33:52;15.17;;;12.73;;
19049;SDS011;9657;45.940;12.840;2023-03-23T11:36:28;16.97;;;12.40;;
19049;SDS011;9657;45.940;12.840;2023-03-23T11:38:59;14.87;;;11.50;;
19049;SDS011;9657;45.940;12.840;2023-03-23T11:41:32;16.83;;;12.30;;
19049;SDS011;9657;45.940;12.840;2023-03-23T11:44:03;14.17;;;11.50;;
19049;SDS011;9657;45.940;12.840;2023-03-23T11:46:37;12.87;;;11.47;;
19049;SDS011;9657;45.940;12.840;2023-03-23T11:49:12;14.97;;;11.57;;
19049;SDS011;9657;45.940;12.840;2023-03-23T11:51:53;11.80;;;10.63;;
19049;SDS011;9657;45.940;12.840;2023-03-23T11:54:26;12.90;;;10.60;;
19049;SDS011;9657;45.940;12.840;2023-03-23T11:57:01;13.07;;;10.97;;
19049;SDS011;9657;45.940;12.840;2023-03-23T11:59:33;11.47;;;10.33;;
19049;SDS011;9657;45.940;12.840;2023-03-23T12:02:03;12.83;;;10.03;;
19049;SDS011;9657;45.940;12.840;2023-03-23T12:04:44;11.53;;;10.00;;
19049;SDS011;9657;45.940;12.840;2023-03-23T12:10:19;12.10;;;10.23;;
19049;SDS011;9657;45.940;12.840;2023-03-23T12:12:59;12.07;;;9.50;;
19049;SDS011;9657;45.940;12.840;2023-03-23T12:15:38;12.57;;;9.47;;
19049;SDS011;9657;45.940;12.840;2023-03-23T12:18:14;10.00;;;9.00;;
19049;SDS011;9657;45.940;12.840;2023-03-23T12:20:49;13.10;;;10.17;;
19049;SDS011;9657;45.940;12.840;2023-03-23T12:23:24;11.50;;;10.30;;
19049;SDS011;9657;45.940;12.840;2023-03-23T12:31:36;9.77;;;8.73;;
19049;SDS011;9657;45.940;12.840;2023-03-23T12:34:11;11.50;;;9.80;;
19049;SDS011;9657;45.940;12.840;2023-03-23T12:37:01;10.50;;;8.97;;
19049;SDS011;9657;45.940;12.840;2023-03-23T12:39:44;9.47;;;8.47;;
19049;SDS011;9657;45.940;12.840;2023-03-23T12:42:26;9.73;;;8.67;;
19049;SDS011;9657;45.940;12.840;2023-03-23T12:45:00;9.80;;;8.83;;
19049;SDS011;9657;45.940;12.840;2023-03-23T12:47:35;9.73;;;8.73;;
19049;SDS011;9657;45.940;12.840;2023-03-23T12:50:09;9.60;;;8.57;;
19049;SDS011;9657;45.940;12.840;2023-03-23T12:52:44;9.07;;;7.90;;
19049;SDS011;9657;45.940;12.840;2023-03-23T12:55:18;9.30;;;8.37;;
19049;SDS011;9657;45.940;12.840;2023-03-23T12:57:50;8.40;;;7.47;;
19049;SDS011;9657;45.940;12.840;2023-03-23T13:00:25;8.80;;;7.90;;
19049;SDS011;9657;45.940;12.840;2023-03-23T13:02:57;10.10;;;8.00;;
19049;SDS011;9657;45.940;12.840;2023-03-23T13:05:36;8.50;;;7.30;;
19049;SDS011;9657;45.940;12.840;2023-03-23T13:08:11;8.80;;;7.87;;
19049;SDS011;9657;45.940;12.840;2023-03-23T13:10:43;9.67;;;8.47;;
19049;SDS011;9657;45.940;12.840;2023-03-23T13:13:14;8.43;;;7.63;;
19049;SDS011;9657;45.940;12.840;2023-03-23T13:15:46;10.23;;;8.37;;
19049;SDS011;9657;45.940;12.840;2023-03-23T13:18:25;9.67;;;8.37;;
19049;SDS011;9657;45.940;12.840;2023-03-23T13:21:02;8.70;;;7.80;;
19049;SDS011;9657;45.940;12.840;2023-03-23T13:23:35;9.83;;;7.93;;
19049;SDS011;9657;45.940;12.840;2023-03-23T13:26:06;8.80;;;7.37;;
19049;SDS011;9657;45.940;12.840;2023-03-23T13:31:24;8.07;;;7.17;;
19049;SDS011;9657;45.940;12.840;2023-03-23T13:33:58;7.30;;;6.63;;
19049;SDS011;9657;45.940;12.840;2023-03-23T13:36:29;7.80;;;7.00;;
19049;SDS011;9657;45.940;12.840;2023-03-23T13:38:58;10.00;;;7.67;;
19049;SDS011;9657;45.940;12.840;2023-03-23T13:41:27;7.57;;;6.20;;
19049;SDS011;9657;45.940;12.840;2023-03-23T13:44:04;9.10;;;7.53;;
19049;SDS011;9657;45.940;12.840;2023-03-23T13:46:53;9.23;;;7.43;;
19049;SDS011;9657;45.940;12.840;2023-03-23T13:49:21;7.20;;;6.50;;
19049;SDS011;9657;45.940;12.840;2023-03-23T13:51:59;7.43;;;6.73;;
19049;SDS011;9657;45.940;12.840;2023-03-23T13:54:43;8.20;;;7.40;;
19049;SDS011;9657;45.940;12.840;2023-03-23T13:57:24;8.37;;;7.23;;
19049;SDS011;9657;45.940;12.840;2023-03-23T14:00:09;9.10;;;7.03;;
19049;SDS011;9657;45.940;12.840;2023-03-23T14:03:01;8.03;;;7.23;;
19049;SDS011;9657;45.940;12.840;2023-03-23T14:05:33;7.97;;;7.20;;
19049;SDS011;9657;45.940;12.840;2023-03-23T14:08:02;8.53;;;6.63;;
19049;SDS011;9657;45.940;12.840;2023-03-23T14:10:38;7.63;;;6.83;;
19049;SDS011;9657;45.940;12.840;2023-03-23T14:13:11;7.47;;;6.73;;
19049;SDS011;9657;45.940;12.840;2023-03-23T14:15:43;7.67;;;6.87;;
19049;SDS011;9657;45.940;12.840;2023-03-23T14:18:15;8.93;;;7.57;;
19049;SDS011;9657;45.940;12.840;2023-03-23T14:20:42;9.00;;;7.70;;
19049;SDS011;9657;45.940;12.840;2023-03-23T14:23:15;8.30;;;7.43;;
19049;SDS011;9657;45.940;12.840;2023-03-23T14:25:43;9.43;;;7.90;;
19049;SDS011;9657;45.940;12.840;2023-03-23T14:28:20;8.23;;;7.07;;
19049;SDS011;9657;45.940;12.840;2023-03-23T14:30:48;8.57;;;7.67;;
19049;SDS011;9657;45.940;12.840;2023-03-23T14:33:20;8.73;;;7.23;;
19049;SDS011;9657;45.940;12.840;2023-03-23T14:35:47;8.63;;;7.70;;
19049;SDS011;9657;45.940;12.840;2023-03-23T14:38:15;10.70;;;8.10;;
19049;SDS011;9657;45.940;12.840;2023-03-23T14:40:45;9.07;;;7.40;;
19049;SDS011;9657;45.940;12.840;2023-03-23T14:43:14;12.73;;;8.00;;
19049;SDS011;9657;45.940;12.840;2023-03-23T14:45:43;30.67;;;10.10;;
19049;SDS011;9657;45.940;12.840;2023-03-23T14:48:12;48.57;;;12.27;;
19049;SDS011;9657;45.940;12.840;2023-03-23T14:50:48;61.13;;;14.37;;
19049;SDS011;9657;45.940;12.840;2023-03-23T14:53:17;61.77;;;13.63;;
19049;SDS011;9657;45.940;12.840;2023-03-23T14:55:47;45.20;;;12.83;;
19049;SDS011;9657;45.940;12.840;2023-03-23T14:58:17;37.83;;;11.13;;
19049;SDS011;9657;45.940;12.840;2023-03-23T15:00:46;33.67;;;11.00;;
19049;SDS011;9657;45.940;12.840;2023-03-23T15:03:20;26.83;;;11.20;;
19049;SDS011;9657;45.940;12.840;2023-03-23T15:05:50;24.23;;;11.27;;